Time;durP1;ratioP1;P1;durP2;ratioP2;P2;SDS_P1;SDS_P2;PMS_P1;PMS_P2;Temp;Humidity;BMP_temperature;BMP_pressure;BME280_temperature;BME280_humidity;BME280_pressure;Samples;Min_cycle;Max_cycle;Signal;HPM_P1;HPM_P2
2021/07/20 00:06:22;;;;;;;1999.90;999.90;;;;;;;17.51;68.62;101407.41;15677385;28;20041;-63
2021/07/20 00:13:54;;;;;;;1999.90;999.90;;;;;;;17.52;69.18;101406.22;15654044;28;20056;-63
2021/07/20 00:21:30;;;;;;;1999.90;999.90;;;;;;;17.68;70.47;101405.38;15642012;28;20559;-61
2021/07/20 00:29:03;;;;;;;1999.90;999.90;;;;;;;17.67;69.40;101418.66;15670380;28;20037;-64
2021/07/20 00:36:38;;;;;;;;;;;;;;;17.83;70.01;101411.06;15649635;28;20490;-63
2021/07/20 00:44:13;;;;;;;1999.90;999.90;;;;;;;17.79;69.42;101407.31;15685733;28;19921;-61
2021/07/20 00:51:47;;;;;;;1999.90;999.90;;;;;;;17.75;69.97;101405.59;15668113;28;20043;-63
2021/07/20 00:59:24;;;;;;;1999.90;999.90;;;;;;;17.94;68.33;101393.56;15668244;28;20060;-62
2021/07/20 01:06:59;;;;;;;1999.90;999.90;;;;;;;17.91;68.23;101392.25;15679145;28;20045;-63
2021/07/20 01:14:33;;;;;;;1999.90;999.90;;;;;;;17.81;68.23;101385.19;15666402;28;20107;-62
2021/07/20 01:22:22;;;;;;;1999.90;999.90;;;;;;;17.96;67.52;101383.53;15648728;28;20060;-63
2021/07/20 01:29:58;;;;;;;1999.90;999.90;;;;;;;17.95;66.70;101375.44;15649608;28;20061;-63
2021/07/20 01:37:35;;;;;;;1999.90;999.90;;;;;;;17.96;66.37;101391.19;15648244;28;20509;-64
2021/07/20 01:45:13;;;;;;;1999.90;999.90;;;;;;;17.95;66.51;101381.06;15682936;28;20079;-63
2021/07/20 01:52:55;;;;;;;1999.90;999.90;;;;;;;17.96;66.72;101382.72;15647442;28;20048;-62
2021/07/20 02:00:32;;;;;;;1999.90;999.90;;;;;;;17.97;66.94;101379.50;15681271;28;20548;-63
2021/07/20 02:08:31;;;;;;;1999.90;999.90;;;;;;;17.98;67.07;101389.63;15632251;28;20053;-61
2021/07/20 02:16:11;;;;;;;1999.90;999.90;;;;;;;18.11;67.20;101387.50;15661293;28;20041;-62
2021/07/20 02:23:57;;;;;;;1999.90;999.90;;;;;;;18.01;67.41;101390.88;15661863;28;20049;-63
2021/07/20 02:31:37;;;;;;;1999.90;999.90;;;;;;;17.99;68.59;101379.16;15663096;28;20219;-63
2021/07/20 02:39:14;;;;;;;1999.90;999.90;;;;;;;18.08;68.96;101385.41;15661670;28;20099;-62
2021/07/20 02:46:55;;;;;;;1999.90;999.90;;;;;;;18.07;68.93;101367.66;15678938;28;20064;-64
2021/07/20 02:54:28;;;;;;;1999.90;999.90;;;;;;;18.08;67.63;101374.94;15680019;28;20041;-64
2021/07/20 03:02:08;;;;;;;;;;;;;;;18.23;67.95;101384.53;15645697;28;20045;-64
2021/07/20 03:09:49;;;;;;;1999.90;999.90;;;;;;;18.12;68.94;101384.28;15662004;28;19921;-64
2021/07/20 03:17:31;;;;;;;1999.90;999.90;;;;;;;18.22;68.00;101387.72;15662106;28;20551;-64
2021/07/20 03:25:07;;;;;;;1999.90;999.90;;;;;;;18.12;68.48;101395.59;15660445;28;20060;-64
2021/07/20 03:32:47;;;;;;;1999.90;999.90;;;;;;;18.21;68.10;101395.38;15659439;28;20040;-63
2021/07/20 03:40:32;;;;;;;1999.90;999.90;;;;;;;18.18;68.73;101390.50;15659578;28;20117;-63
2021/07/20 03:48:06;;;;;;;1999.90;999.90;;;;;;;18.21;68.27;101401.03;15678779;28;20168;-65
2021/07/20 03:55:53;;;;;;;1999.90;999.90;;;;;;;18.23;68.37;101403.50;15662349;28;20502;-63
2021/07/20 04:03:28;;;;;;;1999.90;999.90;;;;;;;18.29;67.13;101400.03;15662739;28;20518;-61
2021/07/20 04:11:14;;;;;;;1999.90;999.90;;;;;;;18.42;67.38;101389.41;15681616;28;20041;-63
2021/07/20 04:18:56;;;;;;;1999.90;999.90;;;;;;;18.54;67.08;101394.09;15679445;28;20051;-63
2021/07/20 04:26:48;;;;;;;1999.90;999.90;;;;;;;18.63;66.79;101394.69;15696550;28;20041;-63
2021/07/20 04:34:22;;;;;;;1999.90;999.90;;;;;;;18.86;65.89;101397.63;15677747;28;20041;-64
2021/07/20 04:42:15;;;;;;;1999.90;999.90;;;;;;;18.90;65.26;101409.84;15655844;28;20041;-63
2021/07/20 04:49:53;;;;;;;1999.90;999.90;;;;;;;19.02;64.87;101409.66;15677434;28;20045;-64
2021/07/20 04:57:31;;;;;;;1999.90;999.90;;;;;;;19.09;65.68;101409.81;15667625;28;20049;-64
2021/07/20 05:05:07;;;;;;;1999.90;999.90;;;;;;;19.22;65.80;101410.47;15678693;28;20029;-63
2021/07/20 05:12:40;;;;;;;1999.90;999.90;;;;;;;19.05;66.19;101414.56;15669592;28;20076;-62
2021/07/20 05:20:18;;;;;;;1999.90;999.90;;;;;;;19.33;65.89;101419.97;15666743;28;20051;-61
2021/07/20 05:28:15;;;;;;;1999.90;999.90;;;;;;;19.55;65.08;101424.84;15668335;28;20124;-61
2021/07/20 05:35:52;;;;;;;1999.90;999.90;;;;;;;19.63;64.27;101431.44;15682827;28;20114;-61
2021/07/20 05:43:28;;;;;;;1999.90;999.90;;;;;;;19.62;62.62;101426.19;15664276;28;20506;-60
2021/07/20 05:51:03;;;;;;;1999.90;999.90;;;;;;;19.81;62.52;101440.25;15660453;28;20040;-61
2021/07/20 05:58:44;;;;;;;1999.90;999.90;;;;;;;20.01;62.06;101435.31;15609524;28;20056;-62
2021/07/20 06:06:19;;;;;;;1999.90;999.90;;;;;;;20.00;62.36;101434.50;15585214;28;20050;-62
2021/07/20 06:14:08;;;;;;;1999.90;999.90;;;;;;;20.13;62.73;101443.63;15619289;28;20038;-63
2021/07/20 06:21:45;;;;;;;1999.90;999.90;;;;;;;20.66;62.31;101454.94;15600781;28;20053;-62
2021/07/20 06:29:29;;;;;;;1999.90;999.90;;;;;;;20.51;59.77;101458.78;15600289;28;20577;-63
2021/07/20 06:37:08;;;;;;;1999.90;999.90;;;;;;;20.93;60.38;101462.19;15600772;28;20044;-62
2021/07/20 06:45:08;;;;;;;1999.90;999.90;;;;;;;21.64;58.26;101450.00;15617094;28;20132;-62
2021/07/20 06:52:49;;;;;;;1999.90;999.90;;;;;;;21.93;56.03;101462.47;15600126;28;20041;-63
2021/07/20 07:00:23;;;;;;;1999.90;999.90;;;;;;;22.82;52.57;101465.91;15668143;28;20077;-62
2021/07/20 07:08:01;;;;;;;1999.90;999.90;;;;;;;23.11;52.81;101475.41;15676392;28;20068;-60
2021/07/20 07:15:34;;;;;;;1999.90;999.90;;;;;;;23.81;48.40;101474.00;15657868;28;20083;-61
2021/07/20 07:23:08;;;;;;;1999.90;999.90;;;;;;;22.69;49.91;101471.13;15657912;28;20041;-61
2021/07/20 07:30:45;;;;;;;1999.90;999.90;;;;;;;22.27;50.63;101469.66;15675283;28;20051;-62
2021/07/20 07:38:20;;;;;;;1999.90;999.90;;;;;;;21.52;51.56;101479.53;15675026;28;20069;-63
2021/07/20 07:46:01;;;;;;;1999.90;999.90;;;;;;;21.58;52.08;101470.25;15674856;28;20095;-61
2021/07/20 07:53:36;;;;;;;1999.90;999.90;;;;;;;21.55;47.66;101482.38;15594113;28;20052;-60
2021/07/20 08:01:11;;;;;;;1999.90;999.90;;;;;;;21.43;45.60;101481.84;15612440;28;20487;-62
2021/07/20 08:08:45;;;;;;;1999.90;999.90;;;;;;;21.61;46.29;101488.53;15642049;28;20052;-61
2021/07/20 08:16:17;;;;;;;1999.90;999.90;;;;;;;22.42;46.21;101477.09;15655758;28;20354;-61
2021/07/20 08:23:55;;;;;;;1999.90;999.90;;;;;;;23.79;45.39;101479.28;15671688;28;20042;-62
2021/07/20 08:31:37;;;;;;;1999.90;999.90;;;;;;;24.58;42.77;101482.91;15650335;28;20224;-62
2021/07/20 08:39:21;;;;;;;1999.90;999.90;;;;;;;24.51;40.65;101483.78;15683248;28;20623;-63
2021/07/20 08:47:10;;;;;;;1999.90;999.90;;;;;;;24.25;42.15;101482.13;15641687;28;20049;-62
2021/07/20 08:54:51;;;;;;;1999.90;999.90;;;;;;;26.02;40.99;101467.53;15674678;28;20048;-62
2021/07/20 09:02:49;;;;;;;1999.90;999.90;;;;;;;24.21;43.43;101469.13;15681743;28;20506;-61
2021/07/20 09:10:29;;;;;;;1999.90;999.90;;;;;;;22.28;45.22;101471.28;15681615;28;20549;-62
2021/07/20 09:18:15;;;;;;;1999.90;999.90;;;;;;;22.55;45.88;101457.66;15669096;28;20051;-62
2021/07/20 09:25:57;;;;;;;1999.90;999.90;;;;;;;23.11;44.82;101476.25;15649228;28;20045;-61
2021/07/20 09:33:46;;;;;;;1999.90;999.90;;;;;;;22.94;44.62;101477.81;15634086;28;20044;-60
2021/07/20 09:41:28;;;;;;;1999.90;999.90;;;;;;;23.69;47.95;101486.59;15678220;28;20143;-60
2021/07/20 09:49:05;;;;;;;1999.90;999.90;;;;;;;24.10;42.54;101481.34;15661552;28;20052;-62
2021/07/20 09:56:50;;;;;;;1999.90;999.90;;;;;;;23.78;41.62;101487.03;15679677;28;20045;-62
2021/07/20 10:04:28;;;;;;;1999.90;999.90;;;;;;;24.47;45.15;101485.78;15661273;28;20048;-61
2021/07/20 10:12:07;;;;;;;1999.90;999.90;;;;;;;24.36;43.68;101467.88;15680489;28;20057;-63
2021/07/20 10:19:57;;;;;;;;;;;;;;;;;;;;;
2021/07/20 10:27:46;;;;;;;1999.90;999.90;;;;;;;24.17;43.40;101469.91;15663693;28;20045;-62
2021/07/20 10:35:29;;;;;;;1999.90;999.90;;;;;;;23.52;45.90;101465.38;15681047;28;20045;-61
2021/07/20 10:43:06;;;;;;;;;;;;;;;23.51;45.87;101466.59;15662710;28;20128;-61
2021/07/20 10:51:12;;;;;;;1999.90;999.90;;;;;;;24.22;46.81;101459.34;15679643;28;20023;-61
2021/07/20 10:58:54;;;;;;;1999.90;999.90;;;;;;;24.49;44.16;101460.56;15655906;28;20111;-62
2021/07/20 11:06:28;;;;;;;1999.90;999.90;;;;;;;24.52;46.63;101464.63;15601904;28;20052;-64
2021/07/20 11:14:09;;;;;;;1999.90;999.90;;;;;;;24.05;45.58;101461.78;15655708;28;20049;-63
2021/07/20 11:21:51;;;;;;;1999.90;999.90;;;;;;;25.14;47.57;101461.16;15676966;28;20417;-64
2021/07/20 11:29:28;;;;;;;1999.90;999.90;;;;;;;24.71;46.04;101478.44;15677134;28;20040;-63
2021/07/20 11:37:04;;;;;;;1999.90;999.90;;;;;;;23.16;48.84;101467.31;15676361;28;20040;-64
2021/07/20 11:44:45;;;;;;;1999.90;999.90;;;;;;;22.89;49.58;101468.81;15675684;28;20056;-65
2021/07/20 11:52:29;;;;;;;1999.90;999.90;;;;;;;22.37;53.12;101473.78;15676257;28;20488;-63
2021/07/20 12:00:16;;;;;;;1999.90;999.90;;;;;;;22.65;52.19;101476.00;15659080;28;20124;-64
2021/07/20 12:07:55;;;;;;;1999.90;999.90;;;;;;;22.15;53.91;101461.44;15686441;28;20049;-65
2021/07/20 12:15:52;;;;;;;1999.90;999.90;;;;;;;22.66;53.26;101469.91;15686846;28;20052;-64
2021/07/20 12:23:33;;;;;;;1999.90;999.90;;;;;;;22.70;54.37;101469.91;15685373;28;20036;-62
2021/07/20 12:31:11;;;;;;;1999.90;999.90;;;;;;;22.04;54.46;101471.88;15667818;28;20053;-64
2021/07/20 12:39:12;;;;;;;1999.90;999.90;;;;;;;21.96;54.23;101464.50;15669167;28;20049;-63
2021/07/20 12:46:47;;;;;;;1999.90;999.90;;;;;;;22.47;55.80;101459.63;15611166;28;20040;-64
2021/07/20 12:54:35;;;;;;;1999.90;999.90;;;;;;;23.14;54.59;101464.06;15667616;28;20041;-65
2021/07/20 13:02:17;;;;;;;1999.90;999.90;;;;;;;23.11;55.64;101459.16;15682847;28;20055;-63
2021/07/20 13:10:16;;;;;;;1999.90;999.90;;;;;;;24.05;52.79;101467.47;15683848;28;20053;-64
2021/07/20 13:17:53;;;;;;;1999.90;999.90;;;;;;;24.26;52.30;101462.97;15681645;28;20506;-65
2021/07/20 13:25:29;;;;;;;1999.90;999.90;;;;;;;24.11;53.01;101454.47;15664633;28;20064;-63
2021/07/20 13:33:02;;;;;;;1999.90;999.90;;;;;;;23.64;52.64;101454.84;15663450;28;20045;-63
2021/07/20 13:40:41;;;;;;;1999.90;999.90;;;;;;;24.65;52.82;101442.97;15662550;28;20041;-64
2021/07/20 13:48:20;;;;;;;1999.90;999.90;;;;;;;24.01;50.87;101437.34;15680653;28;20041;-63
2021/07/20 13:56:13;;;;;;;1999.90;999.90;;;;;;;23.83;51.27;101431.66;15642913;28;20201;-65
2021/07/20 14:03:55;;;;;;;1999.90;999.90;;;;;;;24.66;50.25;101445.41;15624471;28;20056;-64
2021/07/20 14:11:48;;;;;;;1999.90;999.90;;;;;;;25.09;48.67;101450.97;15662454;28;20049;-65
2021/07/20 14:19:22;;;;;;;;;;;;;;;25.29;47.83;101457.78;15661489;28;20381;-64
2021/07/20 14:26:57;;;;;;;1999.90;999.90;;;;;;;25.40;49.33;101448.34;15660910;28;19920;-63
2021/07/20 14:34:42;;;;;;;1999.90;999.90;;;;;;;24.97;49.07;101454.25;15677258;28;20037;-64
2021/07/20 14:42:20;;;;;;;1999.90;999.90;;;;;;;25.09;49.34;101439.53;15606758;28;20042;-64
2021/07/20 14:49:54;;;;;;;1999.90;999.90;;;;;;;24.98;48.83;101448.13;15678739;28;20378;-64
2021/07/20 14:57:32;;;;;;;1999.90;999.90;;;;;;;24.32;50.33;101442.22;15651627;28;20487;-64
2021/07/20 15:05:24;;;;;;;1999.90;999.90;;;;;;;24.18;50.14;101451.59;15670903;28;20094;-64
2021/07/20 15:12:56;;;;;;;1999.90;999.90;;;;;;;23.69;50.81;101454.44;15676792;28;20045;-65
2021/07/20 15:20:34;;;;;;;1999.90;999.90;;;;;;;23.65;52.76;101447.91;15675574;28;20049;-63
2021/07/20 15:28:08;;;;;;;1999.90;999.90;;;;;;;23.75;52.79;101453.63;15676452;28;20053;-65
2021/07/20 15:35:42;;;;;;;1999.90;999.90;;;;;;;23.11;53.67;101450.63;15659308;28;20045;-63
2021/07/20 15:43:14;;;;;;;1999.90;999.90;;;;;;;22.76;53.81;101460.63;15641573;28;20037;-65
2021/07/20 15:50:48;;;;;;;1999.90;999.90;;;;;;;22.81;53.01;101459.41;15658343;28;20509;-65
2021/07/20 15:58:20;;;;;;;1999.90;999.90;;;;;;;22.51;54.26;101450.31;15658072;28;20080;-65
2021/07/20 16:05:56;;;;;;;1999.90;999.90;;;;;;;22.41;55.60;101451.91;15658764;28;20049;-64
2021/07/20 16:13:28;;;;;;;1999.90;999.90;;;;;;;22.52;54.35;101452.78;15675703;28;20056;-66
2021/07/20 16:21:02;;;;;;;1999.90;999.90;;;;;;;22.71;54.61;101448.78;15658046;28;20456;-66
2021/07/20 16:28:36;;;;;;;1999.90;999.90;;;;;;;22.74;54.09;101451.66;15657552;28;20042;-66
2021/07/20 16:36:10;;;;;;;1999.90;999.90;;;;;;;23.30;53.97;101461.66;15657020;28;20052;-66
2021/07/20 16:43:42;;;;;;;1999.90;999.90;;;;;;;23.33;54.34;101457.19;15675220;28;20045;-66
2021/07/20 16:51:19;;;;;;;1999.90;999.90;;;;;;;23.45;52.95;101444.63;15680375;28;20048;-65
2021/07/20 16:58:54;;;;;;;1999.90;999.90;;;;;;;23.40;51.86;101445.00;15668177;28;20072;-66
2021/07/20 17:06:32;;;;;;;1999.90;999.90;;;;;;;23.30;51.99;101450.28;15668839;28;20379;-61
2021/07/20 17:14:05;;;;;;;1999.90;999.90;;;;;;;23.61;51.63;101445.88;15684573;28;20049;-62
2021/07/20 17:21:40;;;;;;;1999.90;999.90;;;;;;;23.47;52.46;101443.00;15665918;28;20143;-61
2021/07/20 17:29:20;;;;;;;1999.90;999.90;;;;;;;23.22;51.57;101447.81;15684485;28;20061;-63
2021/07/20 17:36:55;;;;;;;1999.90;999.90;;;;;;;23.17;52.05;101442.50;15665747;28;20068;-63
2021/07/20 17:44:32;;;;;;;1999.90;999.90;;;;;;;22.91;52.43;101447.28;15665766;28;20127;-63
2021/07/20 17:52:14;;;;;;;1999.90;999.90;;;;;;;22.77;51.39;101441.50;15664491;28;20140;-63
2021/07/20 17:59:49;;;;;;;1999.90;999.90;;;;;;;23.03;52.14;101446.94;15673777;28;20048;-61
2021/07/20 18:07:23;;;;;;;1999.90;999.90;;;;;;;22.93;51.49;101446.91;15664388;28;20045;-62
2021/07/20 18:14:55;;;;;;;1999.90;999.90;;;;;;;22.81;50.85;101458.59;15682643;28;20187;-63
2021/07/20 18:22:29;;;;;;;1999.90;999.90;;;;;;;23.01;52.86;101457.91;15681543;28;20055;-62
2021/07/20 18:30:02;;;;;;;1999.90;999.90;;;;;;;22.72;52.15;101448.41;15681770;28;20045;-63
2021/07/20 18:37:35;;;;;;;1999.90;999.90;;;;;;;22.70;53.13;101462.19;15679457;28;20051;-62
2021/07/20 18:45:12;;;;;;;1999.90;999.90;;;;;;;22.49;53.87;101459.22;15661575;28;20036;-63
2021/07/20 18:52:47;;;;;;;1999.90;999.90;;;;;;;22.27;55.97;101463.16;15661506;28;20080;-63
2021/07/20 19:00:23;;;;;;;1999.90;999.90;;;;;;;22.05;56.36;101476.34;15679104;28;20421;-63
2021/07/20 19:07:56;;;;;;;1999.90;999.90;;;;;;;21.82;57.01;101480.22;15677386;28;20259;-63
2021/07/20 19:15:29;;;;;;;1999.90;999.90;;;;;;;21.74;56.38;101475.69;15659506;28;20506;-63
2021/07/20 19:23:06;;;;;;;1999.90;999.90;;;;;;;21.49;57.74;101477.47;15642469;28;20331;-63
2021/07/20 19:30:39;;;;;;;1999.90;999.90;;;;;;;21.28;57.46;101495.06;15673275;28;20303;-64
2021/07/20 19:38:13;;;;;;;1999.90;999.90;;;;;;;21.05;58.79;101495.19;15659371;28;20048;-61
2021/07/20 19:45:46;;;;;;;1999.90;999.90;;;;;;;20.79;59.53;101503.72;15636634;28;20120;-63
2021/07/20 19:53:24;;;;;;;;;;;;;;;20.68;60.29;101504.41;15672386;28;20064;-62
2021/07/20 20:01:03;;;;;;;1999.90;999.90;;;;;;;20.38;61.44;101517.69;15670454;28;19921;-66
2021/07/20 20:08:41;;;;;;;1999.90;999.90;;;;;;;20.24;61.63;101515.44;15648422;28;20853;-65
2021/07/20 20:16:13;;;;;;;1999.90;999.90;;;;;;;19.99;62.42;101529.16;15620914;28;20041;-64
2021/07/20 20:23:47;;;;;;;1999.90;999.90;;;;;;;19.88;63.25;101531.81;15673198;28;20045;-65
2021/07/20 20:31:30;;;;;;;1999.90;999.90;;;;;;;19.74;64.21;101537.22;15668616;28;20044;-65
2021/07/20 20:39:06;;;;;;;1999.90;999.90;;;;;;;19.58;64.56;101540.16;15674058;28;20060;-63
2021/07/20 20:46:39;;;;;;;1999.90;999.90;;;;;;;19.36;64.92;101538.06;15688431;28;20064;-62
2021/07/20 20:54:13;;;;;;;1999.90;999.90;;;;;;;19.33;66.19;101536.78;15670415;28;20055;-64
2021/07/20 21:01:52;;;;;;;1999.90;999.90;;;;;;;19.13;65.77;101542.81;15666781;28;20041;-66
2021/07/20 21:09:35;;;;;;;1999.90;999.90;;;;;;;18.97;66.29;101540.91;15667199;28;20045;-63
2021/07/20 21:17:19;;;;;;;1999.90;999.90;;;;;;;18.86;66.81;101544.66;15632703;28;20060;-64
2021/07/20 21:24:58;;;;;;;1999.90;999.90;;;;;;;18.83;66.76;101551.88;15659513;28;20141;-63
2021/07/20 21:32:31;;;;;;;1999.90;999.90;;;;;;;18.64;67.13;101557.44;15674443;28;20052;-63
2021/07/20 21:40:16;;;;;;;1999.90;999.90;;;;;;;18.55;66.93;101568.97;15673384;28;20049;-62
2021/07/20 21:48:02;;;;;;;1999.90;999.90;;;;;;;18.43;67.16;101577.53;15675073;28;20052;-64
2021/07/20 21:55:53;;;;;;;1999.90;999.90;;;;;;;18.35;67.18;101570.91;15658952;28;20307;-63
2021/07/20 22:03:25;;;;;;;1999.90;999.90;;;;;;;18.18;67.38;101568.44;15682329;28;20122;-65
2021/07/20 22:11:18;;;;;;;1999.90;999.90;;;;;;;18.14;67.93;101574.00;15682121;28;20079;-64
2021/07/20 22:18:57;;;;;;;1999.90;999.90;;;;;;;17.95;68.83;101575.91;15668378;28;20056;-66
2021/07/20 22:26:55;;;;;;;1999.90;999.90;;;;;;;17.89;69.11;101581.81;15655937;28;20053;-63
2021/07/20 22:34:30;;;;;;;1999.90;999.90;;;;;;;17.69;70.17;101585.69;15674632;28;20041;-65
2021/07/20 22:42:11;;;;;;;1999.90;999.90;;;;;;;17.65;69.73;101579.09;15680403;28;20145;-63
2021/07/20 22:49:53;;;;;;;1999.90;999.90;;;;;;;17.63;69.87;101583.47;15650647;28;20037;-64
2021/07/20 22:57:40;;;;;;;1999.90;999.90;;;;;;;17.47;70.40;101583.41;15661145;28;20159;-63
2021/07/20 23:05:21;;;;;;;1999.90;999.90;;;;;;;17.29;70.46;101589.34;15676782;28;20037;-64
2021/07/20 23:13:07;;;;;;;1999.90;999.90;;;;;;;17.19;71.68;101589.00;15674525;28;20049;-65
2021/07/20 23:20:55;;;;;;;1999.90;999.90;;;;;;;17.15;71.03;101590.91;15659045;28;20140;-65
2021/07/20 23:29:03;;;;;;;1999.90;999.90;;;;;;;17.15;70.87;101585.28;15675621;28;20045;-65
2021/07/20 23:36:42;;;;;;;1999.90;999.90;;;;;;;17.05;71.46;101591.41;15642344;28;20072;-64
2021/07/20 23:44:45;;;;;;;1999.90;999.90;;;;;;;17.04;71.53;101590.59;15678657;28;20041;-65
2021/07/20 23:52:32;;;;;;;1999.90;999.90;;;;;;;16.88;72.14;101589.69;15675663;28;20041;-64
